createdAt,value
2023-04-07T00:06:49.949Z,98644.25
2023-04-07T00:09:23.343Z,98647.91
2023-04-07T00:11:57.022Z,98646.09
2023-04-07T00:14:30.212Z,98642.53
2023-04-07T00:17:03.969Z,98638.09
2023-04-07T00:19:37.321Z,98640.81
2023-04-07T00:22:12.947Z,98640.81
2023-04-07T00:35:23.906Z,98630.50
2023-04-07T00:37:59.147Z,98623.50
2023-04-07T00:40:32.938Z,98618.22
2023-04-07T00:43:06.153Z,98621.78
2023-04-07T00:45:39.955Z,98618.28
2023-04-07T00:48:13.295Z,98610.44
2023-04-07T01:01:14.913Z,98604.34
2023-04-07T01:04:07.492Z,98600.88
2023-04-07T01:06:50.880Z,98603.59
2023-04-07T01:09:48.958Z,98595.75
2023-04-07T01:12:35.835Z,98604.59
2023-04-07T01:29:42.973Z,98590.59
2023-04-07T01:32:19.523Z,98593.22
2023-04-07T01:35:03.947Z,98588.03
2023-04-07T01:37:38.393Z,98583.72
2023-04-07T01:40:15.887Z,98588.19
2023-04-07T01:42:50.773Z,98576.78
2023-04-07T01:55:41.901Z,98574.28
2023-04-07T01:58:21.914Z,98577.91
2023-04-07T02:00:56.438Z,98575.34
2023-04-07T02:03:38.101Z,98575.44
2023-04-07T02:06:16.893Z,98575.44
2023-04-07T02:22:44.944Z,98570.41
2023-04-07T02:25:23.251Z,98572.25
2023-04-07T02:28:04.917Z,98569.63
2023-04-07T02:30:38.237Z,98575.97
2023-04-07T02:33:11.914Z,98567.25
2023-04-07T02:49:39.059Z,98562.09
2023-04-07T02:52:06.485Z,98559.50
2023-04-07T02:54:46.905Z,98563.03
2023-04-07T02:57:23.924Z,98561.38
2023-04-07T03:00:07.938Z,98556.13
2023-04-07T03:03:00.248Z,98556.13
2023-04-07T03:16:00.876Z,98548.63
2023-04-07T03:18:50.589Z,98546.06
2023-04-07T03:21:24.448Z,98545.19
2023-04-07T03:23:57.918Z,98537.34
2023-04-07T03:26:31.182Z,98533.84
2023-04-07T03:42:47.047Z,98535.03
2023-04-07T03:45:20.350Z,98537.75
2023-04-07T03:47:56.003Z,98538.69
2023-04-07T03:50:30.002Z,98533.44
2023-04-07T03:53:23.917Z,98537.03
2023-04-07T03:55:58.808Z,98526.56
2023-04-07T04:09:21.860Z,98540.94
2023-04-07T04:12:01.891Z,98531.28
2023-04-07T04:14:41.762Z,98530.41
2023-04-07T04:17:24.041Z,98540.19
2023-04-07T04:19:57.136Z,98541.13
2023-04-07T04:22:45.000Z,98538.56
2023-04-07T04:35:57.929Z,98533.66
2023-04-07T04:38:31.487Z,98538.09
2023-04-07T04:41:11.884Z,98539.78
2023-04-07T04:43:45.283Z,98534.50
2023-04-07T04:46:30.087Z,98535.38
2023-04-07T05:03:07.074Z,98541.63
2023-04-07T05:05:53.894Z,98530.16
2023-04-07T05:08:27.265Z,98534.50
2023-04-07T05:11:00.887Z,98537.13
2023-04-07T05:13:35.203Z,98545.06
2023-04-07T05:16:11.933Z,98541.50
2023-04-07T05:18:47.641Z,98540.56
2023-04-07T05:28:12.984Z,98539.66
2023-04-07T05:30:48.086Z,98536.94
2023-04-07T05:33:21.888Z,98550.06
2023-04-07T05:35:57.627Z,98542.97
2023-04-07T05:38:30.895Z,98543.84
2023-04-07T05:41:11.472Z,98544.69
2023-04-07T05:43:52.125Z,98547.31
2023-04-07T05:54:29.870Z,98552.59
2023-04-07T05:57:13.904Z,98546.41
2023-04-07T05:59:48.985Z,98547.97
2023-04-07T06:02:22.077Z,98548.78
2023-04-07T06:04:55.275Z,98551.41
2023-04-07T06:07:28.905Z,98550.44
2023-04-07T06:21:22.892Z,98552.72
2023-04-07T06:23:56.254Z,98549.16
2023-04-07T06:26:29.910Z,98549.03
2023-04-07T06:29:03.304Z,98543.72
2023-04-07T06:31:36.960Z,98540.16
2023-04-07T06:34:10.115Z,98540.31
2023-04-07T06:36:46.680Z,98544.63
2023-04-07T06:49:56.878Z,98544.47
2023-04-07T06:52:32.084Z,98545.34
2023-04-07T06:55:06.625Z,98547.97
2023-04-07T06:57:40.125Z,98541.78
2023-04-07T07:00:15.927Z,98546.09
2023-04-07T07:02:57.121Z,98550.56
2023-04-07T07:15:54.891Z,98554.84
2023-04-07T07:18:34.904Z,98554.00
2023-04-07T07:21:08.761Z,98561.91
2023-04-07T07:23:41.862Z,98556.56
2023-04-07T07:26:15.117Z,98562.66
2023-04-07T07:28:48.861Z,98566.06
2023-04-07T07:42:00.932Z,98577.28
2023-04-07T07:44:34.118Z,98565.03
2023-04-07T07:47:07.861Z,98566.88
2023-04-07T07:49:41.085Z,98574.63
2023-04-07T07:52:14.893Z,98576.38
2023-04-07T07:54:48.955Z,98573.72
2023-04-07T07:57:25.032Z,98578.09
2023-04-07T08:10:34.861Z,98579.66
2023-04-07T08:13:10.710Z,98579.66
2023-04-07T08:15:45.861Z,98586.66
2023-04-07T08:18:19.116Z,98591.91
2023-04-07T08:20:52.866Z,98589.19
2023-04-07T08:23:26.117Z,98584.69
2023-04-07T08:36:16.816Z,98587.03
2023-04-07T08:38:57.518Z,98586.00
2023-04-07T08:41:38.727Z,98589.28
2023-04-07T08:44:20.869Z,98584.66
2023-04-07T08:46:59.341Z,98582.66
2023-04-07T09:03:23.147Z,98585.59
2023-04-07T09:05:57.269Z,98583.59
2023-04-07T09:08:33.825Z,98586.91
2023-04-07T09:11:07.165Z,98581.34
2023-04-07T09:13:40.831Z,98582.91
2023-04-07T09:16:14.755Z,98577.31
2023-04-07T09:18:49.849Z,98578.03
2023-04-07T09:28:47.826Z,98564.97
2023-04-07T09:31:27.907Z,98565.53
2023-04-07T09:34:04.961Z,98566.25
2023-04-07T09:36:47.833Z,98570.53
2023-04-07T09:39:21.227Z,98571.31
2023-04-07T09:41:54.931Z,98564.09
2023-04-07T09:55:23.910Z,98555.31
2023-04-07T09:57:57.839Z,98554.38
2023-04-07T10:00:31.829Z,98556.09
2023-04-07T10:03:07.251Z,98562.22
2023-04-07T10:05:42.376Z,98554.28
2023-04-07T10:08:16.475Z,98555.00
2023-04-07T10:24:50.982Z,98547.13
2023-04-07T10:27:32.783Z,98539.03
2023-04-07T10:30:21.858Z,98536.13
2023-04-07T10:33:02.245Z,98534.25
2023-04-07T10:36:09.901Z,98537.69
2023-04-07T10:49:26.830Z,98553.00
2023-04-07T10:52:24.275Z,98547.78
2023-04-07T10:55:39.860Z,98558.41
2023-04-07T10:58:18.307Z,98554.03
2023-04-07T11:01:25.868Z,98554.81
2023-04-07T11:04:00.345Z,98557.31
2023-04-07T11:16:50.801Z,98544.06
2023-04-07T11:19:30.842Z,98547.47
2023-04-07T11:22:30.020Z,98544.69
2023-04-07T11:25:26.838Z,98543.66
2023-04-07T11:28:00.170Z,98550.75
2023-04-07T11:44:18.533Z,98544.63
2023-04-07T11:46:57.414Z,98543.53
2023-04-07T11:49:37.816Z,98548.78
2023-04-07T11:52:11.180Z,98540.72
2023-04-07T11:54:48.849Z,98542.25
2023-04-07T11:57:26.217Z,98545.69
2023-04-07T12:10:30.788Z,98541.94
2023-04-07T12:13:10.854Z,98543.56
2023-04-07T12:15:44.066Z,98541.94
2023-04-07T12:18:21.859Z,98542.09
2023-04-07T12:20:56.061Z,98541.16
2023-04-07T12:23:29.811Z,98542.88
2023-04-07T12:36:41.825Z,98535.84
2023-04-07T12:39:15.804Z,98532.19
2023-04-07T12:41:48.819Z,98536.53
2023-04-07T12:44:22.081Z,98538.16
2023-04-07T12:46:56.513Z,98537.06
2023-04-07T13:03:34.091Z,98529.72
2023-04-07T13:06:14.815Z,98534.78
2023-04-07T13:08:48.039Z,98536.47
2023-04-07T13:11:22.782Z,98533.66
2023-04-07T13:13:57.946Z,98527.22
2023-04-07T13:16:39.856Z,98529.63
2023-04-07T13:19:15.068Z,98533.06
2023-04-07T13:29:20.848Z,98530.13
2023-04-07T13:32:04.291Z,98523.59
2023-04-07T13:34:46.817Z,98520.75
2023-04-07T13:37:20.059Z,98526.00
2023-04-07T13:39:53.808Z,98520.53
2023-04-07T13:42:27.169Z,98526.72
2023-04-07T13:56:00.796Z,98512.78
2023-04-07T13:58:42.809Z,98510.22
2023-04-07T14:01:16.997Z,98512.97
2023-04-07T14:03:51.010Z,98519.44
2023-04-07T14:06:25.289Z,98515.91
2023-04-07T14:08:58.821Z,98517.88
2023-04-07T14:22:52.841Z,98515.22
2023-04-07T14:25:26.051Z,98516.44
2023-04-07T14:27:59.852Z,98512.22
2023-04-07T14:30:35.958Z,98509.75
2023-04-07T14:33:09.850Z,98506.53
2023-04-07T14:35:43.119Z,98509.50
2023-04-07T14:38:18.807Z,98509.63
2023-04-07T14:51:28.810Z,98508.72
2023-04-07T14:54:03.988Z,98517.72
2023-04-07T14:56:37.916Z,98515.06
2023-04-07T14:59:11.098Z,98520.56
2023-04-07T15:01:44.848Z,98519.78
2023-04-07T15:17:43.869Z,98526.69
2023-04-07T15:20:24.985Z,98517.09
2023-04-07T15:22:58.193Z,98525.13
2023-04-07T15:25:31.816Z,98516.41
2023-04-07T15:28:05.471Z,98514.84
2023-04-07T15:30:38.829Z,98525.56
2023-04-07T15:33:14.128Z,98522.22
2023-04-07T15:43:06.238Z,98528.16
2023-04-07T15:45:40.711Z,98531.75
2023-04-07T15:48:13.831Z,98526.44
2023-04-07T15:50:49.087Z,98531.03
2023-04-07T15:53:22.829Z,98531.88
2023-04-07T15:55:56.163Z,98530.16
2023-04-07T15:58:29.886Z,98533.78
2023-04-07T16:11:41.810Z,98532.38
2023-04-07T16:14:15.027Z,98535.97
2023-04-07T16:16:49.045Z,98536.13
2023-04-07T16:19:22.074Z,98536.28
2023-04-07T16:21:56.549Z,98538.16
2023-04-07T16:38:33.782Z,98555.06
2023-04-07T16:41:29.817Z,98559.53
2023-04-07T16:44:03.177Z,98559.59
2023-04-07T16:46:37.824Z,98562.31
2023-04-07T16:49:11.124Z,98568.53
2023-04-07T16:51:44.817Z,98562.50
2023-04-07T16:54:19.983Z,98560.78
2023-04-07T17:03:42.980Z,98571.72
2023-04-07T17:06:17.059Z,98575.38
2023-04-07T17:08:50.860Z,98578.13
2023-04-07T17:11:26.021Z,98587.00
2023-04-07T17:13:59.785Z,98584.44
2023-04-07T17:16:33.285Z,98589.84
2023-04-07T17:19:06.784Z,98590.00
2023-04-07T17:32:18.816Z,98595.75
2023-04-07T17:34:52.077Z,98603.75
2023-04-07T17:37:25.817Z,98606.47
2023-04-07T17:39:59.067Z,98606.47
2023-04-07T17:42:32.804Z,98612.63
2023-04-07T17:59:09.758Z,98637.69
2023-04-07T18:01:49.828Z,98628.88
2023-04-07T18:04:23.355Z,98624.50
2023-04-07T18:06:57.468Z,98640.41
2023-04-07T18:09:31.126Z,98636.97
2023-04-07T18:12:04.779Z,98636.19
2023-04-07T18:25:16.778Z,98651.28
2023-04-07T18:27:50.055Z,98653.16
2023-04-07T18:30:24.726Z,98651.44
2023-04-07T18:32:58.061Z,98656.84
2023-04-07T18:35:31.797Z,98651.63
2023-04-07T18:38:05.201Z,98656.84
2023-04-07T18:50:58.766Z,98663.88
2023-04-07T18:53:38.781Z,98667.44
2023-04-07T18:56:12.025Z,98662.16
2023-04-07T18:58:45.797Z,98659.50
2023-04-07T19:01:19.107Z,98666.59
2023-04-07T19:03:53.212Z,98665.75
2023-04-07T19:17:08.782Z,98663.31
2023-04-07T19:19:42.076Z,98671.31
2023-04-07T19:22:15.778Z,98671.31
2023-04-07T19:24:49.034Z,98670.44
2023-04-07T19:27:27.811Z,98661.66
2023-04-07T19:30:01.149Z,98670.44
2023-04-07T19:32:36.968Z,98667.81
2023-04-07T19:45:46.781Z,98671.44
2023-04-07T19:48:21.961Z,98673.16
2023-04-07T19:50:55.774Z,98665.22
2023-04-07T19:53:29.006Z,98663.50
2023-04-07T19:56:02.788Z,98670.59
2023-04-07T19:58:36.036Z,98668.88
2023-04-07T20:11:26.735Z,98668.00
2023-04-07T20:14:07.431Z,98675.22
2023-04-07T20:16:41.022Z,98670.88
2023-04-07T20:19:14.768Z,98674.44
2023-04-07T20:21:48.166Z,98670.00
2023-04-07T20:24:21.765Z,98671.81
2023-04-07T20:37:41.727Z,98674.50
2023-04-07T20:40:15.162Z,98667.44
2023-04-07T20:42:48.771Z,98670.00
2023-04-07T20:45:22.426Z,98669.16
2023-04-07T20:47:57.396Z,98678.88
2023-04-07T20:50:31.005Z,98672.72
2023-04-07T20:53:06.770Z,98673.56
2023-04-07T21:06:16.764Z,98674.50
2023-04-07T21:08:51.982Z,98675.44
2023-04-07T21:11:25.787Z,98674.56
2023-04-07T21:14:05.914Z,98673.72
2023-04-07T21:16:45.852Z,98673.72
2023-04-07T21:19:19.038Z,98670.28
2023-04-07T21:32:09.750Z,98667.00
2023-04-07T21:34:49.745Z,98667.00
2023-04-07T21:37:23.026Z,98666.06
2023-04-07T21:40:00.700Z,98668.72
2023-04-07T21:42:34.002Z,98665.28
2023-04-07T21:58:49.940Z,98657.59
2023-04-07T22:01:23.138Z,98662.09
2023-04-07T22:03:56.844Z,98658.59
2023-04-07T22:06:30.094Z,98647.22
2023-04-07T22:09:04.014Z,98649.81
2023-04-07T22:11:37.969Z,98642.81
2023-04-07T22:14:13.742Z,98644.59
2023-04-07T22:24:21.728Z,98640.28
2023-04-07T22:27:01.764Z,98634.16
2023-04-07T22:29:36.977Z,98642.09
2023-04-07T22:32:10.797Z,98644.81
2023-04-07T22:34:44.405Z,98646.66
2023-04-07T22:37:17.757Z,98646.66
2023-04-07T22:51:07.763Z,98639.63
2023-04-07T22:53:41.036Z,98644.94
2023-04-07T22:56:14.772Z,98644.13
2023-04-07T22:58:48.501Z,98636.19
2023-04-07T23:01:21.876Z,98645.09
2023-04-07T23:03:55.039Z,98641.63
2023-04-07T23:20:11.722Z,98655.78
2023-04-07T23:22:50.633Z,98646.13
2023-04-07T23:25:24.613Z,98641.75
2023-04-07T23:27:57.982Z,98645.34
2023-04-07T23:30:31.749Z,98640.06
2023-04-07T23:33:05.176Z,98636.63
2023-04-07T23:45:55.716Z,98642.84
2023-04-07T23:48:36.889Z,98627.03
2023-04-07T23:51:09.986Z,98629.69
2023-04-07T23:53:43.720Z,98634.09
2023-04-07T23:56:20.003Z,98629.75
2023-04-07T23:58:53.717Z,98629.75
